CheckWX is a tool to help pilots better visualize weather data.  It is not intended as a substitute for an official pre-flight weather briefing.

15:18:19 UTC

CYOA METAR
Ekati Airport
Ekati, Canada
Current

1 hour ago

CYOA 201400Z 10015KT 15SM BKN120 BKN230 02/M01 A2995
Observed
May-20 @ 14:00 UTC
Wind
  • 100° at 15 KTS
Visibility
15 SM
Flight Rules
VFR
Cloud Levels
  • Broken at 12,000' AGL
  • Broken at 23,000' AGL
Temperature
C / 36°F
Dewpoint
-1°C / 30°F
Humidity
81%
Altimeter
29.95" Hg
Pressure
1014.22 hPa
Previous

2 hours ago

CYOA 201300Z 11018KT 15SM BKN120 BKN230 01/M01 A2994
Observed
May-20 @ 13:00 UTC
Wind
  • 110° at 18 KTS
Visibility
15 SM
Flight Rules
VFR
Cloud Levels
  • Broken at 12,000' AGL
  • Broken at 23,000' AGL
Temperature
C / 34°F
Dewpoint
-1°C / 30°F
Humidity
87%
Altimeter
29.94" Hg
Pressure
1013.92 hPa
Previous

3 hours ago

CYOA 201200Z 11016KT 15SM BKN090 BKN230 01/M01 A2996
Observed
May-20 @ 12:00 UTC
Wind
  • 110° at 16 KTS
Visibility
15 SM
Flight Rules
VFR
Cloud Levels
  • Broken at 9,000' AGL
  • Broken at 23,000' AGL
Temperature
C / 34°F
Dewpoint
-1°C / 30°F
Humidity
87%
Altimeter
29.96" Hg
Pressure
1014.52 hPa